Nypd628 — WDH6551 — position and weather

sailwx.info

Track history (hours):
 
Tides and Currents Weather Stations Pressure Air Temp Water Temp Dewpoint Dewpoint Depression Visibility Wind Speed Wind Dir Waves Ship Positions

Nypd628

Owner: New York City Police Department, Brooklyn, NY. More information available from US FCC via Universal Licensing System.

Last reported at 2018-Jul-16 13:50 UTC. Time now 2018-Jul-17 05:21 UTC.
Position N 40°46' W 073°57'.

Type: Law enforcement. MMSI: 367639170.

Date/timePositionNaut miles runAvg speedWind from/ knotsBaromVisibWave heightAir tempDewpointWater temp
2018-Jul-16 13:50N 40°46' W 073°57'411.1
2018-Jul-16 13:30N 40°42' W 073°59'4 8.6
2018-Jul-16 13:00N 40°39' W 074°02'  
2018-Jul-10 00:46N 40°39' W 074°02'0 0.0
2018-Jul-10 00:30N 40°39' W 074°02'0 0.0
2018-Jul-10 00:00N 40°39' W 074°02'0 0.0
2018-Jul-09 23:30N 40°39' W 074°02'0 0.0
2018-Jul-09 23:00N 40°39' W 074°02'0 0.0
2018-Jul-09 22:30N 40°39' W 074°02'0 0.0
2018-Jul-09 22:00N 40°39' W 074°02'1 2.3
2018-Jul-09 21:30N 40°40' W 074°01'1 0.3
2018-Jul-09 18:07N 40°39' W 074°02'0 0.0
2018-Jul-09 18:01N 40°39' W 074°02'4 8.0
2018-Jul-09 17:30N 40°42' W 073°60'2 3.5
2018-Jul-09 17:01N 40°43' W 074°01'2 4.7
2018-Jul-09 16:31N 40°41' W 074°03'3 5.3
2018-Jul-09 16:00N 40°39' W 074°02'0 0.0
2018-Jul-09 15:29N 40°39' W 074°02'0 0.0
2018-Jul-09 15:00N 40°39' W 074°02'0 0.0
2018-Jul-09 14:30N 40°39' W 074°02'0 0.0
2018-Jul-09 13:59N 40°39' W 074°02'0 0.0
2018-Jul-09 13:30N 40°39' W 074°02'0 0.0
2018-Jul-09 13:00N 40°39' W 074°02'0 0.0
2018-Jul-09 11:22N 40°39' W 074°02'0 0.0
2018-Jul-09 10:03N 40°39' W 074°02'0 0.0
2018-Jul-09 10:01N 40°39' W 074°02'0 0.0
2018-Jul-09 09:31N 40°39' W 074°02'0 0.0
2018-Jul-09 09:01N 40°39' W 074°02'3 6.8
2018-Jul-09 08:30N 40°42' W 074°00'0 0.7
2018-Jul-09 08:00N 40°42' W 073°60'1 1.8
2018-Jul-09 07:30N 40°41' W 074°01'1 2.4
2018-Jul-09 07:00N 40°42' W 073°60'1 2.4
2018-Jul-09 06:30N 40°41' W 074°01'0 0.0
2018-Jul-09 06:00N 40°41' W 074°01'0 0.0
2018-Jul-09 05:30N 40°41' W 074°01'0 0.0
2018-Jul-09 05:00N 40°41' W 074°01'0 0.0
2018-Jul-09 04:30N 40°41' W 074°01'0 0.0
2018-Jul-09 04:00N 40°41' W 074°01'0 0.0
2018-Jul-09 03:30N 40°41' W 074°01'0 0.0
2018-Jul-09 03:00N 40°41' W 074°01'0 0.0
2018-Jul-09 02:30N 40°41' W 074°01'0 0.0
2018-Jul-09 02:00N 40°41' W 074°01'0 0.0
2018-Jul-09 01:30N 40°41' W 074°01'3 5.8
2018-Jul-09 01:00N 40°39' W 074°02'0 0.0
2018-Jul-09 00:26N 40°39' W 074°02'0 0.0
2018-Jul-08 23:58N 40°39' W 074°02'0 0.0
2018-Jul-08 23:27N 40°39' W 074°02'0 0.0
2018-Jul-08 23:00N 40°39' W 074°02'0 0.0
2018-Jul-08 22:30N 40°39' W 074°02'0 0.0
2018-Jul-08 21:59N 40°39' W 074°02'4 1.7
2018-Jul-08 19:30N 40°43' W 073°60'0 0.0
2018-Jul-08 18:58N 40°43' W 073°60'2 5.1
2018-Jul-08 18:30N 40°40' W 074°01'0 0.0
2018-Jul-08 18:00N 40°40' W 074°01'0 0.0
2018-Jul-08 17:30N 40°40' W 074°01'0 0.0
2018-Jul-08 17:00N 40°40' W 074°01'5 9.6
2018-Jul-08 16:30N 40°45' W 074°01'1 1.7
2018-Jul-08 16:00N 40°46' W 074°00'3 6.7
2018-Jul-08 15:30N 40°43' W 074°01'2 4.7
2018-Jul-08 15:00N 40°40' W 074°01'2 2.9
2018-Jul-08 14:26N 40°39' W 074°02'0 0.0
2018-Jul-08 13:55N 40°39' W 074°02'0 0.0
2018-Jul-08 13:29N 40°39' W 074°02'0 0.0
2018-Jul-08 12:59N 40°39' W 074°02'3 0.3
2018-Jul-08 04:31N 40°41' W 074°01'0 0.5
2018-Jul-08 04:30N 40°41' W 074°01'3 0.7
2018-Jul-08 00:12N 40°39' W 074°02'0 0.0
2018-Jul-07 22:28N 40°39' W 074°02'0 0.0
2018-Jul-07 22:00N 40°39' W 074°02'8 6.7
2018-Jul-07 20:49N 40°46' W 073°57'1 2.0
2018-Jul-07 20:31N 40°45' W 073°58'3 6.5
2018-Jul-07 20:00N 40°43' W 073°60'0 0.0
2018-Jul-07 19:30N 40°43' W 073°60'0 0.0
2018-Jul-07 19:00N 40°43' W 073°60'0 0.0
2018-Jul-07 18:30N 40°43' W 073°60'3 5.6
2018-Jul-07 18:00N 40°40' W 074°01'0 0.7
2018-Jul-07 17:31N 40°40' W 074°00'1 1.8
2018-Jul-07 17:01N 40°39' W 074°01'1 1.8
2018-Jul-07 16:30N 40°40' W 074°00'0 0.0
2018-Jul-07 16:00N 40°40' W 074°00'0 0.0
2018-Jul-07 15:30N 40°40' W 074°00'1 1.4
2018-Jul-07 15:00N 40°40' W 074°01'2 3.6
2018-Jul-07 14:31N 40°42' W 074°00'2 0.5
2018-Jul-07 10:09N 40°40' W 074°00'0 0.0
2018-Jul-07 10:00N 40°40' W 074°00'0 0.0
2018-Jul-07 09:30N 40°40' W 074°00'0 0.0
2018-Jul-07 09:00N 40°40' W 074°00'2 4.9
2018-Jul-07 08:30N 40°42' W 073°60'2 4.8
2018-Jul-07 08:01N 40°40' W 074°00'0 0.1
2018-Jul-07 07:31N 40°40' W 074°00'0 0.0
2018-Jul-07 07:01N 40°40' W 074°00'0 0.0
2018-Jul-07 06:31N 40°40' W 074°00'0 0.0
2018-Jul-07 06:00N 40°40' W 074°00'0 0.0
2018-Jul-07 05:31N 40°40' W 074°00'0 0.0
2018-Jul-07 05:01N 40°40' W 074°00'0 0.0
2018-Jul-07 04:30N 40°40' W 074°00'0 0.0
2018-Jul-07 04:00N 40°40' W 074°00'0 0.0
2018-Jul-07 03:30N 40°40' W 074°00'0 0.0
2018-Jul-07 03:01N 40°40' W 074°00'2 3.7
2018-Jul-07 02:31N 40°42' W 074°01'1 2.2
2018-Jul-07 02:00N 40°43' W 074°01'1 1.3
2018-Jul-07 01:30N 40°42' W 074°01'4 7.1
2018-Jul-07 01:00N 40°39' W 074°02'0 0.0
2018-Jul-07 00:30N 40°39' W 074°02'0 0.0
2018-Jul-07 00:00N 40°39' W 074°02'0 0.0
2018-Jul-06 23:30N 40°39' W 074°02'2 4.7
2018-Jul-06 22:59N 40°36' W 074°02'2 5.1
2018-Jul-06 22:30N 40°39' W 074°02'0 0.0
2018-Jul-06 22:00N 40°39' W 074°02'2 3.4
2018-Jul-06 21:31N 40°40' W 074°01'1 2.4
2018-Jul-06 21:00N 40°41' W 074°01'0 0.0
2018-Jul-06 20:30N 40°41' W 074°01'  
Track history (hours):
 
Tides and Currents Weather Stations Pressure Air Temp Water Temp Dewpoint Dewpoint Depression Visibility Wind Speed Wind Dir Waves Ship Positions

Nypd628

Owner: New York City Police Department, Brooklyn, NY. More information available from US FCC via Universal Licensing System.

Last reported at 2018-Jul-16 13:50 UTC. Time now 2018-Jul-17 05:21 UTC.
Position N 40°46' W 073°57'.

Type: Law enforcement. MMSI: 367639170.

Date/timePositionNaut miles runAvg speedWind from/ knotsBaromVisibWave heightAir tempDewpointWater temp
2018-Jul-16 13:50N 40°46' W 073°57'411.1
2018-Jul-16 13:30N 40°42' W 073°59'4 8.6
2018-Jul-16 13:00N 40°39' W 074°02'  
2018-Jul-10 00:46N 40°39' W 074°02'0 0.0
2018-Jul-10 00:30N 40°39' W 074°02'0 0.0
2018-Jul-10 00:00N 40°39' W 074°02'0 0.0
2018-Jul-09 23:30N 40°39' W 074°02'0 0.0
2018-Jul-09 23:00N 40°39' W 074°02'0 0.0
2018-Jul-09 22:30N 40°39' W 074°02'0 0.0
2018-Jul-09 22:00N 40°39' W 074°02'1 2.3
2018-Jul-09 21:30N 40°40' W 074°01'1 0.3
2018-Jul-09 18:07N 40°39' W 074°02'0 0.0
2018-Jul-09 18:01N 40°39' W 074°02'4 8.0
2018-Jul-09 17:30N 40°42' W 073°60'2 3.5
2018-Jul-09 17:01N 40°43' W 074°01'2 4.7
2018-Jul-09 16:31N 40°41' W 074°03'3 5.3
2018-Jul-09 16:00N 40°39' W 074°02'0 0.0
2018-Jul-09 15:29N 40°39' W 074°02'0 0.0
2018-Jul-09 15:00N 40°39' W 074°02'0 0.0
2018-Jul-09 14:30N 40°39' W 074°02'0 0.0
2018-Jul-09 13:59N 40°39' W 074°02'0 0.0
2018-Jul-09 13:30N 40°39' W 074°02'0 0.0
2018-Jul-09 13:00N 40°39' W 074°02'0 0.0
2018-Jul-09 11:22N 40°39' W 074°02'0 0.0
2018-Jul-09 10:03N 40°39' W 074°02'0 0.0
2018-Jul-09 10:01N 40°39' W 074°02'0 0.0
2018-Jul-09 09:31N 40°39' W 074°02'0 0.0
2018-Jul-09 09:01N 40°39' W 074°02'3 6.8
2018-Jul-09 08:30N 40°42' W 074°00'0 0.7
2018-Jul-09 08:00N 40°42' W 073°60'1 1.8
2018-Jul-09 07:30N 40°41' W 074°01'1 2.4
2018-Jul-09 07:00N 40°42' W 073°60'1 2.4
2018-Jul-09 06:30N 40°41' W 074°01'0 0.0
2018-Jul-09 06:00N 40°41' W 074°01'0 0.0
2018-Jul-09 05:30N 40°41' W 074°01'0 0.0
2018-Jul-09 05:00N 40°41' W 074°01'0 0.0
2018-Jul-09 04:30N 40°41' W 074°01'0 0.0
2018-Jul-09 04:00N 40°41' W 074°01'0 0.0
2018-Jul-09 03:30N 40°41' W 074°01'0 0.0
2018-Jul-09 03:00N 40°41' W 074°01'0 0.0
2018-Jul-09 02:30N 40°41' W 074°01'0 0.0
2018-Jul-09 02:00N 40°41' W 074°01'0 0.0
2018-Jul-09 01:30N 40°41' W 074°01'3 5.8
2018-Jul-09 01:00N 40°39' W 074°02'0 0.0
2018-Jul-09 00:26N 40°39' W 074°02'0 0.0
2018-Jul-08 23:58N 40°39' W 074°02'0 0.0
2018-Jul-08 23:27N 40°39' W 074°02'0 0.0
2018-Jul-08 23:00N 40°39' W 074°02'0 0.0
2018-Jul-08 22:30N 40°39' W 074°02'0 0.0
2018-Jul-08 21:59N 40°39' W 074°02'4 1.7
2018-Jul-08 19:30N 40°43' W 073°60'0 0.0
2018-Jul-08 18:58N 40°43' W 073°60'2 5.1
2018-Jul-08 18:30N 40°40' W 074°01'0 0.0
2018-Jul-08 18:00N 40°40' W 074°01'0 0.0
2018-Jul-08 17:30N 40°40' W 074°01'0 0.0
2018-Jul-08 17:00N 40°40' W 074°01'5 9.6
2018-Jul-08 16:30N 40°45' W 074°01'1 1.7
2018-Jul-08 16:00N 40°46' W 074°00'3 6.7
2018-Jul-08 15:30N 40°43' W 074°01'2 4.7
2018-Jul-08 15:00N 40°40' W 074°01'2 2.9
2018-Jul-08 14:26N 40°39' W 074°02'0 0.0
2018-Jul-08 13:55N 40°39' W 074°02'0 0.0
2018-Jul-08 13:29N 40°39' W 074°02'0 0.0
2018-Jul-08 12:59N 40°39' W 074°02'3 0.3
2018-Jul-08 04:31N 40°41' W 074°01'0 0.5
2018-Jul-08 04:30N 40°41' W 074°01'3 0.7
2018-Jul-08 00:12N 40°39' W 074°02'0 0.0
2018-Jul-07 22:28N 40°39' W 074°02'0 0.0
2018-Jul-07 22:00N 40°39' W 074°02'8 6.7
2018-Jul-07 20:49N 40°46' W 073°57'1 2.0
2018-Jul-07 20:31N 40°45' W 073°58'3 6.5
2018-Jul-07 20:00N 40°43' W 073°60'0 0.0
2018-Jul-07 19:30N 40°43' W 073°60'0 0.0
2018-Jul-07 19:00N 40°43' W 073°60'0 0.0
2018-Jul-07 18:30N 40°43' W 073°60'3 5.6
2018-Jul-07 18:00N 40°40' W 074°01'0 0.7
2018-Jul-07 17:31N 40°40' W 074°00'1 1.8
2018-Jul-07 17:01N 40°39' W 074°01'1 1.8
2018-Jul-07 16:30N 40°40' W 074°00'0 0.0
2018-Jul-07 16:00N 40°40' W 074°00'0 0.0
2018-Jul-07 15:30N 40°40' W 074°00'1 1.4
2018-Jul-07 15:00N 40°40' W 074°01'2 3.6
2018-Jul-07 14:31N 40°42' W 074°00'2 0.5
2018-Jul-07 10:09N 40°40' W 074°00'0 0.0
2018-Jul-07 10:00N 40°40' W 074°00'0 0.0
2018-Jul-07 09:30N 40°40' W 074°00'0 0.0
2018-Jul-07 09:00N 40°40' W 074°00'2 4.9
2018-Jul-07 08:30N 40°42' W 073°60'2 4.8
2018-Jul-07 08:01N 40°40' W 074°00'0 0.1
2018-Jul-07 07:31N 40°40' W 074°00'0 0.0
2018-Jul-07 07:01N 40°40' W 074°00'0 0.0
2018-Jul-07 06:31N 40°40' W 074°00'0 0.0
2018-Jul-07 06:00N 40°40' W 074°00'0 0.0
2018-Jul-07 05:31N 40°40' W 074°00'0 0.0
2018-Jul-07 05:01N 40°40' W 074°00'0 0.0
2018-Jul-07 04:30N 40°40' W 074°00'0 0.0
2018-Jul-07 04:00N 40°40' W 074°00'0 0.0
2018-Jul-07 03:30N 40°40' W 074°00'0 0.0
2018-Jul-07 03:01N 40°40' W 074°00'2 3.7
2018-Jul-07 02:31N 40°42' W 074°01'1 2.2
2018-Jul-07 02:00N 40°43' W 074°01'1 1.3
2018-Jul-07 01:30N 40°42' W 074°01'4 7.1
2018-Jul-07 01:00N 40°39' W 074°02'0 0.0
2018-Jul-07 00:30N 40°39' W 074°02'0 0.0
2018-Jul-07 00:00N 40°39' W 074°02'0 0.0
2018-Jul-06 23:30N 40°39' W 074°02'2 4.7
2018-Jul-06 22:59N 40°36' W 074°02'2 5.1
2018-Jul-06 22:30N 40°39' W 074°02'0 0.0
2018-Jul-06 22:00N 40°39' W 074°02'2 3.4
2018-Jul-06 21:31N 40°40' W 074°01'1 2.4
2018-Jul-06 21:00N 40°41' W 074°01'0 0.0
2018-Jul-06 20:30N 40°41' W 074°01'  

Dump ship's entire track history